Terminal Aerodrome Forecast
Issued by NWS Melbourne, FL

Home | Current Version | Previous Version | Text Only | Print | Product List | Glossary On
Versions: 1 2 3 4 5 6 7 8 9 10 11 12 13 14 15 16 17 18
000
FTUS42 KMLB 302300
TAFDAB
TAF
KDAB 302321Z 0100/0124 34010KT P6SM VCSH FEW015 BKN060 OVC120
     FM010200 02003KT P6SM SCT100 BKN250
     FM011000 00000KT 5SM BR SCT006
     FM011400 05008KT P6SM FEW010 BKN060=

USA.gov is the U.S. government's official web portal to all federal, state and local government web resources and services.